| time (UTC) | temp F | wind direction | speed MPH | gust MPH | rain 1hr in | rain 24hr in | rain mn in | humidity % | barometer mb |
| 20260510225229 | 64 | 44 | 0.0 | 2.0 | 0.00 | 0.00 | 0.00 | 76 | 1015.0 |
| 20260510224725 | 64 | 44 | 0.0 | 2.0 | 0.00 | 0.00 | 0.00 | 76 | 1015.2 |
| 20260510224222 | 64 | 44 | 0.0 | 2.0 | 0.00 | 0.00 | 0.00 | 76 | 1015.1 |
| 20260510223720 | 64 | 44 | 0.0 | 2.0 | 0.00 | 0.00 | 0.00 | 76 | 1015.0 |
| 20260510223217 | 64 | 44 | 0.0 | 2.0 | 0.00 | 0.00 | 0.00 | 76 | 1015.0 |
| 20260510222714 | 64 | 44 | 0.0 | 2.0 | 0.00 | 0.00 | 0.00 | 76 | 1015.1 |
| 20260510222211 | 64 | 214 | 1.0 | 5.0 | 0.00 | 0.00 | 0.00 | 76 | 1015.0 |
| 20260510221706 | 64 | 268 | 0.0 | 2.0 | 0.00 | 0.00 | 0.00 | 74 | 1015.1 |
| 20260510221203 | 65 | 334 | 2.0 | 2.0 | 0.00 | 0.00 | 0.00 | 74 | 1015.0 |
| 20260510220659 | 65 | 334 | 2.0 | 5.0 | 0.00 | 0.00 | 0.00 | 74 | 1015.0 |
| 20260510220154 | 65 | 277 | 0.0 | 2.0 | 0.00 | 0.00 | 0.00 | 76 | 1015.2 |
| 20260510215652 | 66 | 243 | 3.0 | 3.0 | 0.00 | 0.00 | 0.00 | 73 | 1015.1 |
| 20260510215150 | 67 | 299 | 2.0 | 4.0 | 0.00 | 0.00 | 0.00 | 74 | 1014.8 |
| 20260510214646 | 66 | 6 | 2.0 | 2.0 | 0.00 | 0.00 | 0.00 | 76 | 1014.7 |
| 20260510214143 | 64 | 59 | 2.0 | 2.0 | 0.00 | 0.00 | 0.00 | 79 | 1014.7 |
| 20260510213640 | 64 | 64 | 2.0 | 3.0 | 0.00 | 0.00 | 0.00 | 81 | 1014.7 |
| 20260510213137 | 64 | 47 | 1.0 | 2.0 | 0.00 | 0.00 | 0.00 | 79 | 1014.9 |
| 20260510212633 | 64 | 124 | 1.0 | 3.0 | 0.00 | 0.00 | 0.00 | 80 | 1014.9 |
| 20260510212131 | 63 | 328 | 2.0 | 2.0 | 0.00 | 0.00 | 0.00 | 83 | 1014.9 |
| 20260510211627 | 63 | 328 | 2.0 | 2.0 | 0.00 | 0.00 | 0.00 | 83 | 1014.7 |
| 20260510211121 | 63 | 337 | 1.0 | 4.0 | 0.00 | 0.00 | 0.00 | 82 | 1014.8 |
| 20260510210618 | 63 | 311 | 1.0 | 4.0 | 0.00 | 0.00 | 0.00 | 82 | 1014.9 |
| 20260510210114 | 63 | 311 | 1.0 | 4.0 | 0.00 | 0.00 | 0.00 | 82 | 1014.8 |
| 20260510205612 | 63 | 37 | 3.0 | 4.0 | 0.00 | 0.00 | 0.00 | 81 | 1014.6 |
| 20260510205109 | 63 | 200 | 1.0 | 4.0 | 0.00 | 0.00 | 0.00 | 80 | 1014.3 |
| 20260510204605 | 63 | 141 | 3.0 | 5.0 | 0.00 | 0.00 | 0.00 | 80 | 1014.4 |
| 20260510204102 | 64 | 69 | 1.0 | 6.0 | 0.00 | 0.00 | 0.00 | 80 | 1014.3 |
| 20260510203559 | 66 | 106 | 5.0 | 8.0 | 0.00 | 0.00 | 0.00 | 78 | 1014.0 |
| 20260510203056 | 66 | 157 | 3.0 | 6.0 | 0.00 | 0.00 | 0.00 | 77 | 1014.1 |
| 20260510202555 | 66 | 174 | 3.0 | 5.0 | 0.00 | 0.00 | 0.00 | 77 | 1014.0 |
| 20260510202051 | 66 | 174 | 3.0 | 5.0 | 0.00 | 0.00 | 0.00 | 77 | 1014.0 |
| 20260510201549 | 66 | 182 | 3.0 | 5.0 | 0.00 | 0.00 | 0.00 | 78 | 1014.1 |
| 20260510201045 | 65 | 193 | 1.0 | 5.0 | 0.00 | 0.00 | 0.00 | 79 | 1014.1 |
| 20260510200541 | 65 | 134 | 4.0 | 6.0 | 0.00 | 0.00 | 0.00 | 80 | 1014.3 |
| 20260510200039 | 64 | 138 | 1.0 | 4.0 | 0.00 | 0.00 | 0.00 | 81 | 1014.3 |
| 20260510195537 | 64 | 93 | 2.0 | 4.0 | 0.00 | 0.00 | 0.00 | 81 | 1014.2 |
| 20260510195032 | 65 | 162 | 2.0 | 4.0 | 0.00 | 0.00 | 0.00 | 80 | 1014.4 |
| 20260510194527 | 64 | 328 | 2.0 | 5.0 | 0.00 | 0.00 | 0.00 | 80 | 1014.2 |
| 20260510194024 | 65 | 112 | 5.0 | 7.0 | 0.00 | 0.00 | 0.00 | 79 | 1014.3 |
| 20260510193518 | 65 | 180 | 2.0 | 4.0 | 0.00 | 0.00 | 0.00 | 80 | 1014.4 |
| 20260510193014 | 65 | 71 | 3.0 | 4.0 | 0.00 | 0.00 | 0.00 | 79 | 1014.3 |
| 20260510192504 | 65 | 208 | 1.0 | 4.0 | 0.00 | 0.00 | 0.00 | 79 | 1014.5 |
| 20260510192000 | 65 | 137 | 1.0 | 3.0 | 0.00 | 0.00 | 0.00 | 79 | 1014.4 |
| 20260510191456 | 65 | 55 | 0.0 | 5.0 | 0.00 | 0.00 | 0.00 | 79 | 1014.6 |
| 20260510190954 | 65 | 111 | 1.0 | 6.0 | 0.00 | 0.00 | 0.00 | 78 | 1014.4 |
| 20260510190451 | 65 | 144 | 3.0 | 4.0 | 0.00 | 0.00 | 0.00 | 78 | 1014.5 |
| 20260510185948 | 65 | 230 | 3.0 | 4.0 | 0.00 | 0.00 | 0.00 | 78 | 1014.6 |
| 20260510185445 | 65 | 204 | 2.0 | 4.0 | 0.00 | 0.00 | 0.00 | 78 | 1014.7 |
| 20260510184942 | 66 | 132 | 3.0 | 6.0 | 0.00 | 0.00 | 0.00 | 76 | 1014.5 |
| 20260510184439 | 66 | 130 | 3.0 | 6.0 | 0.00 | 0.00 | 0.00 | 75 | 1014.6 |
| 20260510183939 | 67 | 122 | 2.0 | 6.0 | 0.00 | 0.00 | 0.00 | 74 | 1014.4 |
| 20260510183435 | 68 | 2 | 0.0 | 4.0 | 0.00 | 0.00 | 0.00 | 73 | 1014.6 |
| 20260510182930 | 67 | 231 | 2.0 | 4.0 | 0.00 | 0.00 | 0.00 | 75 | 1014.7 |
| 20260510182427 | 67 | 231 | 2.0 | 4.0 | 0.00 | 0.00 | 0.00 | 75 | 1014.6 |
| 20260510181922 | 66 | 179 | 4.0 | 7.0 | 0.00 | 0.00 | 0.00 | 76 | 1014.5 |
| 20260510181421 | 65 | 99 | 5.0 | 6.0 | 0.00 | 0.00 | 0.00 | 78 | 1014.7 |
| 20260510180916 | 66 | 199 | 2.0 | 4.0 | 0.00 | 0.00 | 0.00 | 78 | 1014.9 |
| 20260510180414 | 65 | 150 | 2.0 | 5.0 | 0.00 | 0.00 | 0.00 | 80 | 1015.1 |
| 20260510175910 | 65 | 182 | 3.0 | 4.0 | 0.00 | 0.00 | 0.00 | 79 | 1015.2 |
| 20260510175406 | 64 | 33 | 2.0 | 4.0 | 0.00 | 0.00 | 0.00 | 79 | 1015.1 |
| 20260510174902 | 66 | 112 | 4.0 | 8.0 | 0.00 | 0.00 | 0.00 | 77 | 1014.8 |
| 20260510174401 | 66 | 62 | 0.0 | 3.0 | 0.00 | 0.00 | 0.00 | 79 | 1014.6 |
| 20260510173856 | 64 | 161 | 3.0 | 9.0 | 0.00 | 0.00 | 0.00 | 79 | 1014.6 |
| 20260510173352 | 64 | 152 | 5.0 | 8.0 | 0.00 | 0.00 | 0.00 | 80 | 1014.7 |
| 20260510172849 | 64 | 19 | 3.0 | 3.0 | 0.00 | 0.00 | 0.00 | 82 | 1014.5 |
| 20260510172344 | 63 | 215 | 2.0 | 6.0 | 0.00 | 0.00 | 0.00 | 82 | 1014.7 |
| 20260510171840 | 62 | 131 | 6.0 | 10.0 | 0.00 | 0.00 | 0.00 | 83 | 1014.8 |
| 20260510171338 | 62 | 206 | 3.0 | 7.0 | 0.00 | 0.00 | 0.00 | 83 | 1015.0 |
| 20260510170835 | 63 | 149 | 4.0 | 8.0 | 0.00 | 0.00 | 0.00 | 81 | 1014.9 |
| 20260510170331 | 63 | 60 | 1.0 | 5.0 | 0.00 | 0.00 | 0.00 | 82 | 1014.7 |
| 20260510165826 | 63 | 183 | 6.0 | 9.0 | 0.00 | 0.00 | 0.00 | 80 | 1015.0 |
| 20260510165323 | 63 | 118 | 6.0 | 7.0 | 0.00 | 0.00 | 0.00 | 81 | 1014.9 |
| 20260510164821 | 63 | 123 | 2.0 | 6.0 | 0.00 | 0.00 | 0.00 | 82 | 1014.9 |
| 20260510164318 | 63 | 190 | 3.0 | 8.0 | 0.00 | 0.00 | 0.00 | 81 | 1014.9 |
| 20260510163817 | 64 | 256 | 3.0 | 6.0 | 0.00 | 0.00 | 0.00 | 80 | 1014.9 |
| 20260510163314 | 62 | 171 | 2.0 | 5.0 | 0.00 | 0.00 | 0.00 | 83 | 1015.0 |
| 20260510162813 | 62 | 223 | 3.0 | 4.0 | 0.00 | 0.00 | 0.00 | 84 | 1015.0 |
| 20260510162311 | 61 | 44 | 2.0 | 4.0 | 0.00 | 0.00 | 0.00 | 83 | 1015.0 |
| 20260510161806 | 62 | 50 | 2.0 | 2.0 | 0.00 | 0.00 | 0.00 | 83 | 1015.0 |
| 20260510161303 | 62 | 113 | 0.0 | 2.0 | 0.00 | 0.00 | 0.00 | 84 | 1015.1 |
| 20260510160800 | 61 | 256 | 3.0 | 7.0 | 0.00 | 0.00 | 0.00 | 84 | 1015.2 |
| 20260510160256 | 62 | 220 | 3.0 | 3.0 | 0.00 | 0.00 | 0.00 | 84 | 1015.2 |
| 20260510155751 | 62 | 289 | 3.0 | 5.0 | 0.00 | 0.00 | 0.00 | 84 | 1015.2 |
| 20260510155248 | 60 | 134 | 2.0 | 4.0 | 0.00 | 0.00 | 0.00 | 86 | 1015.1 |
| 20260510154744 | 59 | 105 | 2.0 | 5.0 | 0.00 | 0.00 | 0.00 | 87 | 1015.3 |
| 20260510154240 | 59 | 135 | 4.0 | 8.0 | 0.00 | 0.00 | 0.00 | 86 | 1015.4 |
| 20260510153734 | 60 | 274 | 2.0 | 5.0 | 0.00 | 0.00 | 0.00 | 86 | 1015.7 |
| 20260510153230 | 60 | 188 | 2.0 | 4.0 | 0.00 | 0.00 | 0.00 | 85 | 1015.5 |
| 20260510152727 | 60 | 199 | 2.0 | 4.0 | 0.00 | 0.00 | 0.00 | 85 | 1015.6 |
| 20260510152223 | 60 | 314 | 3.0 | 3.0 | 0.00 | 0.00 | 0.00 | 87 | 1015.4 |
| 20260510151720 | 59 | 154 | 3.0 | 4.0 | 0.00 | 0.00 | 0.00 | 88 | 1015.6 |
| 20260510151219 | 59 | 152 | 0.0 | 4.0 | 0.00 | 0.00 | 0.00 | 88 | 1015.5 |
| 20260510150714 | 58 | 193 | 3.0 | 6.0 | 0.00 | 0.00 | 0.00 | 88 | 1015.6 |
| 20260510150209 | 58 | 114 | 1.0 | 4.0 | 0.00 | 0.00 | 0.00 | 89 | 1015.5 |
| 20260510145706 | 57 | 215 | 3.0 | 5.0 | 0.00 | 0.00 | 0.00 | 90 | 1015.5 |
| 20260510145202 | 57 | 181 | 1.0 | 2.0 | 0.00 | 0.00 | 0.00 | 91 | 1015.4 |
| 20260510144700 | 57 | 150 | 2.0 | 3.0 | 0.00 | 0.00 | 0.00 | 91 | 1015.4 |
| 20260510144156 | 57 | 305 | 0.0 | 4.0 | 0.00 | 0.00 | 0.00 | 91 | 1015.2 |
| 20260510143651 | 57 | 197 | 2.0 | 6.0 | 0.00 | 0.00 | 0.00 | 90 | 1015.1 |
| 20260510143148 | 58 | 255 | 2.0 | 5.0 | 0.00 | 0.00 | 0.00 | 87 | 1015.1 |
| 20260510142644 | 59 | 142 | 2.0 | 3.0 | 0.00 | 0.00 | 0.00 | 86 | 1015.1 |
| 20260510142140 | 59 | 206 | 0.0 | 3.0 | 0.00 | 0.00 | 0.00 | 87 | 1015.1 |
| 20260510141637 | 59 | 136 | 3.0 | 4.0 | 0.00 | 0.00 | 0.00 | 87 | 1014.9 |
| 20260510141136 | 59 | 169 | 1.0 | 3.0 | 0.00 | 0.00 | 0.00 | 86 | 1014.9 |
| 20260510140632 | 60 | 176 | 2.0 | 2.0 | 0.00 | 0.00 | 0.00 | 86 | 1014.8 |
| 20260510140131 | 60 | 194 | 2.0 | 3.0 | 0.00 | 0.00 | 0.00 | 87 | 1014.8 |
| 20260510135626 | 59 | 116 | 1.0 | 4.0 | 0.00 | 0.00 | 0.00 | 87 | 1014.9 |
| 20260510135123 | 58 | 118 | 2.0 | 2.0 | 0.00 | 0.00 | 0.00 | 88 | 1014.8 |
| 20260510134620 | 58 | 323 | 1.0 | 3.0 | 0.00 | 0.00 | 0.00 | 87 | 1014.9 |
| 20260510134117 | 57 | 171 | 2.0 | 3.0 | 0.00 | 0.00 | 0.00 | 89 | 1014.8 |
| 20260510133613 | 57 | 176 | 1.0 | 2.0 | 0.00 | 0.00 | 0.00 | 90 | 1015.0 |
| 20260510133109 | 57 | 233 | 3.0 | 3.0 | 0.00 | 0.00 | 0.00 | 89 | 1014.9 |
| 20260510132606 | 58 | 257 | 4.0 | 4.0 | 0.00 | 0.00 | 0.00 | 86 | 1015.1 |
| 20260510132103 | 58 | 108 | 1.0 | 2.0 | 0.00 | 0.00 | 0.00 | 89 | 1015.0 |
| 20260510131600 | 57 | 325 | 2.0 | 3.0 | 0.00 | 0.00 | 0.00 | 90 | 1015.1 |
| 20260510131057 | 56 | 198 | 1.0 | 2.0 | 0.00 | 0.00 | 0.00 | 91 | 1015.0 |
| 20260510130554 | 56 | 107 | 2.0 | 2.0 | 0.00 | 0.00 | 0.00 | 91 | 1015.1 |
| 20260510130051 | 56 | 267 | 1.0 | 2.0 | 0.00 | 0.00 | 0.00 | 91 | 1015.0 |
| 20260510125547 | 55 | 167 | 1.0 | 2.0 | 0.00 | 0.00 | 0.00 | 92 | 1014.8 |
| 20260510125044 | 55 | 197 | 1.0 | 3.0 | 0.00 | 0.00 | 0.00 | 93 | 1015.0 |
| 20260510124541 | 56 | 310 | 0.0 | 3.0 | 0.00 | 0.00 | 0.00 | 93 | 1014.8 |
| 20260510124038 | 55 | 133 | 1.0 | 2.0 | 0.00 | 0.00 | 0.00 | 94 | 1014.9 |
| 20260510123533 | 55 | 208 | 0.0 | 1.0 | 0.00 | 0.00 | 0.00 | 94 | 1014.7 |
| 20260510123030 | 54 | 82 | 0.0 | 3.0 | 0.00 | 0.00 | 0.00 | 95 | 1014.7 |
| 20260510122525 | 54 | 265 | 2.0 | 2.0 | 0.00 | 0.00 | 0.00 | 94 | 1014.6 |
| 20260510122022 | 54 | 178 | 0.0 | 2.0 | 0.00 | 0.00 | 0.00 | 95 | 1014.7 |
| 20260510121519 | 54 | 237 | 2.0 | 2.0 | 0.00 | 0.00 | 0.00 | 95 | 1014.7 |
| 20260510121016 | 54 | 79 | 0.0 | 2.0 | 0.00 | 0.00 | 0.00 | 96 | 1014.6 |
| 20260510120514 | 53 | 306 | 0.0 | 2.0 | 0.00 | 0.00 | 0.00 | 96 | 1014.3 |
| 20260510120010 | 53 | 149 | 0.0 | 0.0 | 0.00 | 0.00 | 0.00 | 96 | 1014.1 |
| 20260510115506 | 53 | 81 | 0.0 | 3.0 | 0.00 | 0.00 | 0.00 | 97 | 1014.1 |
| 20260510115003 | 53 | 46 | 2.0 | 2.0 | 0.00 | 0.00 | 0.00 | 97 | 1013.9 |
| 20260510114459 | 53 | 89 | 2.0 | 2.0 | 0.00 | 0.00 | 0.00 | 97 | 1013.9 |
| 20260510113955 | 53 | 117 | 2.0 | 3.0 | 0.00 | 0.00 | 0.00 | 98 | 1013.9 |
| 20260510113450 | 52 | 143 | 1.0 | 2.0 | 0.00 | 0.00 | 0.00 | 98 | 1014.1 |
| 20260510112948 | 52 | 120 | 2.0 | 3.0 | 0.00 | 0.00 | 0.00 | 98 | 1014.0 |
| 20260510112445 | 52 | 141 | 2.0 | 2.0 | 0.00 | 0.00 | 0.00 | 98 | 1014.1 |
| 20260510111941 | 52 | 122 | 1.0 | 2.0 | 0.00 | 0.00 | 0.00 | 99 | 1014.0 |
| 20260510111437 | 52 | 116 | 1.0 | 3.0 | 0.00 | 0.00 | 0.00 | 99 | 1014.1 |
| 20260510110933 | 52 | 124 | 0.0 | 2.0 | 0.00 | 0.00 | 0.00 | 99 | 1013.8 |
| 20260510110430 | 51 | 134 | 2.0 | 3.0 | 0.00 | 0.00 | 0.00 | 99 | 1014.0 |
| 20260510105926 | 51 | 88 | 0.0 | 5.0 | 0.00 | 0.00 | 0.00 | 99 | 1014.0 |
| 20260510105421 | 51 | 105 | 1.0 | 4.0 | 0.00 | 0.00 | 0.00 | 99 | 1013.9 |
| 20260510104916 | 51 | 147 | 3.0 | 5.0 | 0.00 | 0.00 | 0.00 | 99 | 1014.0 |
| 20260510104413 | 51 | 142 | 0.0 | 4.0 | 0.00 | 0.00 | 0.00 | 99 | 1013.8 |
| 20260510103910 | 51 | 140 | 2.0 | 4.0 | 0.00 | 0.00 | 0.00 | 99 | 1013.7 |
| 20260510103407 | 51 | 114 | 2.0 | 3.0 | 0.00 | 0.00 | 0.00 | 99 | 1013.6 |
| 20260510102902 | 51 | 68 | 1.0 | 2.0 | 0.00 | 0.00 | 0.00 | 99 | 1013.6 |
| 20260510102358 | 51 | 154 | 3.0 | 4.0 | 0.00 | 0.00 | 0.00 | 99 | 1013.7 |
| 20260510101856 | 51 | 96 | 2.0 | 4.0 | 0.00 | 0.00 | 0.00 | 99 | 1013.8 |
| 20260510101353 | 51 | 65 | 2.0 | 4.0 | 0.00 | 0.00 | 0.00 | 99 | 1013.9 |
| 20260510100850 | 51 | 44 | 0.0 | 2.0 | 0.00 | 0.00 | 0.00 | 99 | 1014.0 |
| 20260510100342 | 51 | 128 | 2.0 | 3.0 | 0.00 | 0.00 | 0.00 | 99 | 1014.1 |
| 20260510095838 | 51 | 150 | 2.0 | 3.0 | 0.00 | 0.00 | 0.00 | 99 | 1014.2 |
| 20260510095332 | 51 | 33 | 1.0 | 1.0 | 0.00 | 0.00 | 0.00 | 99 | 1014.2 |
| 20260510094827 | 51 | 158 | 0.0 | 2.0 | 0.00 | 0.00 | 0.00 | 99 | 1014.0 |
| 20260510094322 | 51 | 108 | 0.0 | 2.0 | 0.00 | 0.00 | 0.00 | 99 | 1014.1 |
| 20260510093819 | 51 | 142 | 0.0 | 2.0 | 0.00 | 0.00 | 0.00 | 99 | 1014.1 |
| 20260510093315 | 51 | 97 | 0.0 | 2.0 | 0.00 | 0.00 | 0.00 | 99 | 1014.3 |
| 20260510092811 | 51 | 70 | 0.0 | 2.0 | 0.00 | 0.00 | 0.00 | 99 | 1014.3 |
| 20260510092307 | 51 | 160 | 0.0 | 0.0 | 0.00 | 0.00 | 0.00 | 99 | 1014.3 |
| 20260510091803 | 51 | 141 | 0.0 | 2.0 | 0.00 | 0.00 | 0.00 | 99 | 1014.0 |
| 20260510091301 | 51 | 55 | 2.0 | 2.0 | 0.00 | 0.00 | 0.00 | 99 | 1013.9 |
| 20260510090757 | 51 | 66 | 0.0 | 1.0 | 0.00 | 0.00 | 0.00 | 99 | 1014.0 |
| 20260510090254 | 51 | 143 | 2.0 | 3.0 | 0.00 | 0.00 | 0.00 | 99 | 1014.3 |
| 20260510085750 | 51 | 93 | 0.0 | 2.0 | 0.00 | 0.00 | 0.00 | 99 | 1014.3 |
| 20260510085244 | 51 | 122 | 0.0 | 2.0 | 0.00 | 0.00 | 0.00 | 99 | 1014.2 |
| 20260510084740 | 51 | 132 | 0.0 | 1.0 | 0.00 | 0.00 | 0.00 | 99 | 1014.4 |
| 20260510084237 | 51 | 176 | 0.0 | 1.0 | 0.00 | 0.00 | 0.00 | 99 | 1014.2 |
| 20260510083734 | 51 | 216 | 0.0 | 1.0 | 0.00 | 0.00 | 0.00 | 99 | 1014.2 |
| 20260510083231 | 51 | 10 | 1.0 | 2.0 | 0.00 | 0.00 | 0.00 | 99 | 1014.2 |
| 20260510082726 | 51 | 133 | 2.0 | 2.0 | 0.00 | 0.00 | 0.00 | 99 | 1013.9 |
| 20260510082223 | 51 | 144 | 0.0 | 0.0 | 0.00 | 0.00 | 0.00 | 99 | 1013.8 |
| 20260510081722 | 51 | 166 | 0.0 | 2.0 | 0.00 | 0.00 | 0.00 | 99 | 1013.5 |
| 20260510081219 | 51 | 158 | 0.0 | 2.0 | 0.00 | 0.00 | 0.00 | 99 | 1013.5 |
| 20260510080713 | 51 | 164 | 0.0 | 2.0 | 0.00 | 0.00 | 0.00 | 99 | 1013.4 |
| 20260510080209 | 51 | 136 | 2.0 | 2.0 | 0.00 | 0.00 | 0.00 | 99 | 1013.5 |
| 20260510075706 | 51 | 137 | 3.0 | 3.0 | 0.00 | 0.00 | 0.00 | 99 | 1013.5 |
| 20260510075204 | 51 | 104 | 2.0 | 2.0 | 0.00 | 0.00 | 0.00 | 99 | 1013.4 |
| 20260510074701 | 51 | 91 | 2.0 | 2.0 | 0.00 | 0.00 | 0.00 | 99 | 1013.6 |
| 20260510074157 | 51 | 100 | 0.0 | 2.0 | 0.00 | 0.00 | 0.00 | 99 | 1013.6 |
| 20260510073654 | 51 | 66 | 0.0 | 1.0 | 0.00 | 0.00 | 0.00 | 99 | 1013.6 |
| 20260510073150 | 51 | 146 | 1.0 | 2.0 | 0.00 | 0.00 | 0.00 | 99 | 1013.7 |
| 20260510072646 | 51 | 161 | 1.0 | 2.0 | 0.00 | 0.00 | 0.00 | 99 | 1013.5 |
| 20260510072143 | 51 | 111 | 0.0 | 1.0 | 0.00 | 0.00 | 0.00 | 99 | 1013.5 |
| 20260510071638 | 51 | 123 | 1.0 | 2.0 | 0.00 | 0.00 | 0.00 | 99 | 1013.7 |
| 20260510071136 | 51 | 123 | 0.0 | 2.0 | 0.00 | 0.00 | 0.00 | 99 | 1013.5 |
| 20260510070633 | 51 | 32 | 0.0 | 1.0 | 0.00 | 0.00 | 0.00 | 99 | 1013.7 |
| 20260510070131 | 51 | 143 | 0.0 | 2.0 | 0.00 | 0.00 | 0.00 | 99 | 1013.7 |
| 20260510065626 | 51 | 108 | 1.0 | 2.0 | 0.00 | 0.00 | 0.00 | 99 | 1013.8 |
| 20260510065122 | 51 | 141 | 0.0 | 0.0 | 0.00 | 0.00 | 0.00 | 99 | 1013.7 |
| 20260510064619 | 51 | 110 | 1.0 | 2.0 | 0.00 | 0.00 | 0.00 | 99 | 1013.5 |
| 20260510064116 | 51 | 119 | 1.0 | 2.0 | 0.00 | 0.00 | 0.00 | 99 | 1013.6 |
| 20260510063613 | 51 | 124 | 0.0 | 2.0 | 0.00 | 0.00 | 0.00 | 99 | 1013.4 |
| 20260510063110 | 51 | 240 | 0.0 | 3.0 | 0.00 | 0.00 | 0.00 | 99 | 1013.3 |
| 20260510062605 | 51 | 122 | 2.0 | 2.0 | 0.00 | 0.00 | 0.00 | 99 | 1013.1 |
| 20260510062101 | 51 | 111 | 0.0 | 1.0 | 0.00 | 0.00 | 0.00 | 99 | 1013.1 |
| 20260510061557 | 51 | 131 | 0.0 | 2.0 | 0.00 | 0.00 | 0.00 | 99 | 1013.0 |
| 20260510061055 | 51 | 96 | 2.0 | 2.0 | 0.00 | 0.00 | 0.00 | 99 | 1013.0 |
| 20260510060550 | 51 | 150 | 0.0 | 1.0 | 0.00 | 0.00 | 0.00 | 99 | 1013.0 |
| 20260510060047 | 51 | 104 | 2.0 | 3.0 | 0.00 | 0.00 | 0.00 | 99 | 1013.2 |
| 20260510055543 | 51 | 113 | 3.0 | 3.0 | 0.00 | 0.00 | 0.00 | 99 | 1013.2 |
| 20260510055041 | 51 | 131 | 1.0 | 3.0 | 0.00 | 0.00 | 0.00 | 99 | 1013.3 |
| 20260510054537 | 51 | 124 | 0.0 | 2.0 | 0.00 | 0.00 | 0.00 | 99 | 1013.3 |
| 20260510054032 | 51 | 111 | 2.0 | 2.0 | 0.00 | 0.00 | 0.00 | 99 | 1013.6 |
| 20260510053527 | 51 | 135 | 2.0 | 2.0 | 0.00 | 0.00 | 0.00 | 99 | 1013.6 |
| 20260510053024 | 52 | 130 | 0.0 | 2.0 | 0.00 | 0.00 | 0.00 | 99 | 1013.4 |
| 20260510052520 | 52 | 124 | 0.0 | 2.0 | 0.00 | 0.00 | 0.00 | 99 | 1013.6 |
| 20260510052016 | 52 | 131 | 1.0 | 2.0 | 0.00 | 0.00 | 0.00 | 99 | 1013.3 |
| 20260510051512 | 52 | 123 | 1.0 | 2.0 | 0.00 | 0.00 | 0.00 | 99 | 1013.5 |
| 20260510051009 | 52 | 135 | 0.0 | 1.0 | 0.00 | 0.00 | 0.00 | 99 | 1013.5 |
| 20260510050506 | 52 | 109 | 1.0 | 2.0 | 0.00 | 0.00 | 0.00 | 99 | 1013.5 |
| 20260510050003 | 52 | 160 | 0.0 | 2.0 | 0.00 | 0.00 | 0.00 | 99 | 1013.5 |
| 20260510045500 | 52 | 141 | 1.0 | 2.0 | 0.00 | 0.00 | 0.00 | 99 | 1013.4 |
| 20260510044956 | 52 | 115 | 1.0 | 2.0 | 0.00 | 0.00 | 0.00 | 99 | 1013.5 |
| 20260510044453 | 52 | 166 | 0.0 | 2.0 | 0.00 | 0.00 | 0.00 | 99 | 1013.4 |
| 20260510043950 | 52 | 102 | 0.0 | 2.0 | 0.00 | 0.00 | 0.00 | 99 | 1013.4 |
| 20260510043445 | 52 | 110 | 2.0 | 4.0 | 0.00 | 0.00 | 0.00 | 99 | 1013.5 |
| 20260510042944 | 52 | 140 | 0.0 | 1.0 | 0.00 | 0.00 | 0.00 | 99 | 1013.2 |
| 20260510042440 | 52 | 113 | 1.0 | 2.0 | 0.00 | 0.00 | 0.00 | 99 | 1013.4 |
| 20260510041935 | 52 | 162 | 0.0 | 2.0 | 0.00 | 0.00 | 0.00 | 99 | 1013.3 |
| 20260510041433 | 52 | 135 | 0.0 | 1.0 | 0.00 | 0.00 | 0.00 | 99 | 1013.2 |
| 20260510040931 | 52 | 165 | 1.0 | 3.0 | 0.00 | 0.00 | 0.00 | 99 | 1013.2 |
| 20260510040427 | 52 | 122 | 2.0 | 2.0 | 0.00 | 0.00 | 0.00 | 99 | 1013.2 |
| 20260510035923 | 52 | 101 | 1.0 | 1.0 | 0.00 | 0.00 | 0.00 | 99 | 1013.1 |
| 20260510035420 | 52 | 139 | 1.0 | 1.0 | 0.00 | 0.00 | 0.00 | 99 | 1013.2 |
| 20260510034919 | 52 | 229 | 0.0 | 0.0 | 0.00 | 0.00 | 0.00 | 99 | 1013.1 |
| 20260510034418 | 52 | 146 | 1.0 | 2.0 | 0.00 | 0.00 | 0.00 | 99 | 1013.3 |
| 20260510033914 | 52 | 73 | 1.0 | 2.0 | 0.00 | 0.00 | 0.00 | 99 | 1013.0 |
| 20260510033410 | 52 | 155 | 3.0 | 3.0 | 0.00 | 0.00 | 0.00 | 99 | 1013.2 |
| 20260510032907 | 52 | 106 | 0.0 | 2.0 | 0.00 | 0.00 | 0.00 | 99 | 1013.2 |
| 20260510032404 | 52 | 155 | 2.0 | 3.0 | 0.00 | 0.00 | 0.00 | 99 | 1013.3 |
| 20260510031859 | 52 | 103 | 2.0 | 3.0 | 0.00 | 0.00 | 0.00 | 99 | 1013.5 |
| 20260510031355 | 52 | 156 | 3.0 | 3.0 | 0.00 | 0.00 | 0.00 | 99 | 1013.4 |
| 20260510030854 | 52 | 161 | 1.0 | 3.0 | 0.00 | 0.00 | 0.00 | 99 | 1013.4 |
| 20260510030351 | 52 | 122 | 1.0 | 3.0 | 0.00 | 0.00 | 0.00 | 99 | 1013.3 |
| 20260510025849 | 52 | 98 | 0.0 | 3.0 | 0.00 | 0.00 | 0.00 | 99 | 1013.2 |
| 20260510025346 | 52 | 147 | 0.0 | 3.0 | 0.00 | 0.00 | 0.00 | 99 | 1013.3 |
| 20260510024843 | 52 | 137 | 2.0 | 4.0 | 0.00 | 0.00 | 0.00 | 99 | 1013.1 |
| 20260510024340 | 52 | 194 | 0.0 | 3.0 | 0.00 | 0.00 | 0.00 | 99 | 1013.4 |
| 20260510023836 | 52 | 87 | 0.0 | 2.0 | 0.00 | 0.00 | 0.00 | 99 | 1013.0 |
| 20260510023333 | 52 | 147 | 2.0 | 2.0 | 0.00 | 0.00 | 0.00 | 99 | 1013.0 |
| 20260510022831 | 52 | 165 | 2.0 | 2.0 | 0.00 | 0.00 | 0.00 | 99 | 1013.2 |
| 20260510022329 | 52 | 86 | 2.0 | 2.0 | 0.00 | 0.00 | 0.00 | 99 | 1013.2 |
| 20260510021828 | 52 | 120 | 0.0 | 2.0 | 0.00 | 0.00 | 0.00 | 99 | 1013.2 |
| 20260510021326 | 52 | 146 | 2.0 | 3.0 | 0.00 | 0.00 | 0.00 | 99 | 1013.1 |
| 20260510020822 | 52 | 119 | 2.0 | 2.0 | 0.00 | 0.00 | 0.00 | 99 | 1013.2 |
| 20260510020317 | 52 | 99 | 0.0 | 2.0 | 0.00 | 0.00 | 0.00 | 99 | 1013.3 |
| 20260510015813 | 52 | 150 | 2.0 | 5.0 | 0.00 | 0.00 | 0.00 | 99 | 1013.1 |
| 20260510015309 | 52 | 211 | 2.0 | 4.0 | 0.00 | 0.00 | 0.00 | 99 | 1013.2 |
| 20260510014805 | 52 | 143 | 2.0 | 5.0 | 0.00 | 0.00 | 0.00 | 99 | 1013.4 |
| 20260510014302 | 52 | 165 | 2.0 | 6.0 | 0.00 | 0.00 | 0.00 | 99 | 1013.3 |
| 20260510013758 | 52 | 201 | 0.0 | 0.0 | 0.00 | 0.00 | 0.00 | 99 | 1013.3 |
| 20260510013254 | 52 | 180 | 2.0 | 3.0 | 0.00 | 0.00 | 0.00 | 99 | 1013.1 |
| 20260510012749 | 52 | 113 | 0.0 | 1.0 | 0.00 | 0.00 | 0.00 | 99 | 1012.9 |
| 20260510012243 | 52 | 126 | 1.0 | 2.0 | 0.00 | 0.00 | 0.00 | 99 | 1013.1 |
| 20260510011738 | 52 | 124 | 0.0 | 0.0 | 0.00 | 0.00 | 0.00 | 99 | 1013.3 |
| 20260510011233 | 52 | 124 | 0.0 | 2.0 | 0.00 | 0.00 | 0.00 | 99 | 1013.3 |
| 20260510010731 | 52 | 146 | 1.0 | 5.0 | 0.00 | 0.00 | 0.00 | 99 | 1013.0 |
| 20260510010227 | 52 | 114 | 2.0 | 4.0 | 0.00 | 0.00 | 0.00 | 99 | 1013.0 |
| 20260510005724 | 52 | 190 | 0.0 | 6.0 | 0.00 | 0.00 | 0.00 | 99 | 1012.9 |
| 20260510005221 | 52 | 104 | 2.0 | 6.0 | 0.00 | 0.00 | 0.00 | 99 | 1012.9 |
| 20260510004719 | 52 | 151 | 4.0 | 4.0 | 0.00 | 0.00 | 0.00 | 99 | 1013.0 |
| 20260510004216 | 52 | 131 | 4.0 | 6.0 | 0.00 | 0.00 | 0.00 | 99 | 1012.8 |
| 20260510003714 | 52 | 158 | 5.0 | 5.0 | 0.00 | 0.00 | 0.00 | 99 | 1012.7 |
| 20260510003209 | 52 | 142 | 3.0 | 6.0 | 0.00 | 0.00 | 0.00 | 99 | 1012.7 |
| 20260510002708 | 52 | 160 | 1.0 | 4.0 | 0.00 | 0.00 | 0.00 | 99 | 1012.6 |
| 20260510002206 | 52 | 179 | 2.0 | 4.0 | 0.00 | 0.00 | 0.00 | 99 | 1012.6 |
| 20260510001703 | 52 | 121 | 2.0 | 6.0 | 0.00 | 0.00 | 0.00 | 99 | 1012.6 |
| 20260510001202 | 52 | 122 | 3.0 | 3.0 | 0.00 | 0.00 | 0.00 | 99 | 1012.4 |
| 20260510000702 | 52 | 142 | 3.0 | 5.0 | 0.00 | 0.00 | 0.00 | 99 | 1012.4 |
| 20260510000159 | 52 | 133 | 3.0 | 5.0 | 0.00 | 0.00 | 0.00 | 99 | 1012.3 |
| 20260509235656 | 52 | 103 | 3.0 | 4.0 | 0.00 | 0.00 | 0.00 | 99 | 1012.5 |
| 20260509235152 | 52 | 70 | 2.0 | 9.0 | 0.00 | 0.00 | 0.00 | 99 | 1012.5 |
| 20260509234648 | 52 | 178 | 2.0 | 4.0 | 0.00 | 0.00 | 0.00 | 99 | 1012.5 |
| 20260509234146 | 52 | 154 | 2.0 | 4.0 | 0.00 | 0.00 | 0.00 | 99 | 1012.3 |
| 20260509233644 | 53 | 130 | 2.0 | 4.0 | 0.00 | 0.00 | 0.00 | 99 | 1012.5 |
| 20260509233141 | 53 | 159 | 2.0 | 4.0 | 0.00 | 0.00 | 0.00 | 99 | 1013.0 |
| 20260509232637 | 53 | 110 | 2.0 | 5.0 | 0.00 | 0.00 | 0.00 | 99 | 1013.2 |
| 20260509232134 | 53 | 127 | 2.0 | 4.0 | 0.00 | 0.00 | 0.00 | 99 | 1013.3 |
| 20260509231630 | 53 | 109 | 5.0 | 5.0 | 0.00 | 0.00 | 0.00 | 99 | 1013.3 |
| 20260509231128 | 53 | 153 | 4.0 | 4.0 | 0.00 | 0.00 | 0.00 | 99 | 1013.4 |
| 20260509230625 | 53 | 108 | 2.0 | 5.0 | 0.00 | 0.00 | 0.00 | 99 | 1013.4 |
| 20260509230122 | 53 | 145 | 4.0 | 5.0 | 0.00 | 0.00 | 0.00 | 99 | 1013.7 |
| 20260509225618 | 53 | 86 | 3.0 | 4.0 | 0.00 | 0.00 | 0.00 | 99 | 1013.7 |